Time;durP1;ratioP1;P1;durP2;ratioP2;P2;SDS_P1;SDS_P2;PMS_P1;PMS_P2;Temp;Humidity;BMP_temperature;BMP_pressure;BME280_temperature;BME280_humidity;BME280_pressure;Samples;Min_cycle;Max_cycle;Signal;HPM_P1;HPM_P2
2022/03/18 00:00:28;;;;;;;0.20;0.20;;;;;;;12.87;54.28;100958.13;5096516;28;20385;-72
2022/03/18 00:02:54;;;;;;;;;;;;;;;12.82;54.81;100958.38;5096565;28;20039;-72
2022/03/18 00:05:27;;;;;;;0.20;0.20;;;;;;;12.79;54.64;100951.56;5096272;28;19949;-72
2022/03/18 00:07:55;;;;;;;0.20;0.20;;;;;;;12.84;54.17;100965.25;5095845;28;20024;-72
2022/03/18 00:10:26;;;;;;;0.20;0.20;;;;;;;12.73;54.98;100971.69;5095946;28;20076;-72
2022/03/18 00:12:54;;;;;;;0.20;0.20;;;;;;;12.63;54.94;100970.28;5095783;28;20051;-72
2022/03/18 00:15:27;;;;;;;0.20;0.20;;;;;;;12.66;55.24;100974.31;5096007;28;20090;-72
2022/03/18 00:17:53;;;;;;;0.20;0.20;;;;;;;12.63;55.56;100977.84;5095670;28;20485;-72
2022/03/18 00:20:22;;;;;;;0.20;0.20;;;;;;;12.57;55.65;100972.50;5095104;28;20054;-72
2022/03/18 00:22:49;;;;;;;0.20;0.20;;;;;;;12.57;55.58;100978.09;5096113;28;20032;-72
2022/03/18 00:25:18;;;;;;;0.20;0.20;;;;;;;12.64;55.44;100976.66;5095594;28;20122;-72
2022/03/18 00:27:45;;;;;;;0.20;0.20;;;;;;;12.66;55.55;100974.31;5096067;28;20111;-72
2022/03/18 00:30:19;;;;;;;0.20;0.20;;;;;;;12.54;56.15;100973.22;5096812;28;20040;-72
2022/03/18 00:32:51;;;;;;;0.20;0.20;;;;;;;12.55;56.37;100972.03;5095503;28;20020;-72
2022/03/18 00:35:17;;;;;;;0.20;0.20;;;;;;;12.51;56.45;100976.69;5095424;28;20028;-72
2022/03/18 00:37:43;;;;;;;0.20;0.20;;;;;;;12.48;56.24;100969.06;5097202;28;20024;-72
2022/03/18 00:40:09;;;;;;;0.20;0.20;;;;;;;12.44;56.75;100973.72;5095311;28;20096;-72
2022/03/18 00:42:35;;;;;;;0.20;0.20;;;;;;;12.43;56.79;100966.53;5095789;28;20105;-72
2022/03/18 00:45:02;;;;;;;0.20;0.20;;;;;;;12.58;55.78;100968.53;5094984;28;20020;-72
2022/03/18 00:53:04;;;;;;;0.20;0.20;;;;;;;12.32;57.39;100966.22;5096263;28;20157;-72
2022/03/18 00:55:30;;;;;;;0.20;0.20;;;;;;;12.43;56.50;100955.38;5094992;28;20113;-72
2022/03/18 00:57:59;;;;;;;0.20;0.20;;;;;;;12.46;56.79;100959.41;5094756;28;20032;-72
2022/03/18 01:00:33;;;;;;;0.20;0.20;;;;;;;12.24;57.35;100950.44;5094929;28;20059;-72
2022/03/18 01:03:02;;;;;;;0.20;0.20;;;;;;;12.29;57.59;100950.19;5094505;28;20028;-72
2022/03/18 01:05:27;;;;;;;0.20;0.20;;;;;;;12.16;57.90;100945.84;5095145;28;20471;-72
2022/03/18 01:07:56;;;;;;;0.20;0.20;;;;;;;12.00;58.64;100943.00;5094739;28;20024;-72
2022/03/18 01:10:24;;;;;;;0.20;0.20;;;;;;;11.96;58.48;100942.06;5094858;28;20032;-73
2022/03/18 01:12:49;;;;;;;0.20;0.20;;;;;;;11.83;58.65;100915.41;5095498;28;20024;-72
2022/03/18 01:15:18;;;;;;;0.20;0.20;;;;;;;12.04;58.25;100941.13;5094940;28;20387;-72
2022/03/18 01:17:46;;;;;;;0.20;0.20;;;;;;;11.84;58.46;100942.13;5094484;28;20028;-72
2022/03/18 01:20:12;;;;;;;0.20;0.20;;;;;;;11.72;58.61;100930.97;5114412;28;20443;-71
2022/03/18 01:22:38;;;;;;;0.20;0.20;;;;;;;11.65;59.03;100919.59;5098216;28;20024;-72
2022/03/18 01:25:06;;;;;;;0.20;0.20;;;;;;;11.66;58.64;100921.22;5098061;28;20069;-73
2022/03/18 01:27:33;;;;;;;0.20;0.20;;;;;;;11.45;58.93;100887.94;5098206;28;20088;-72
2022/03/18 01:29:58;;;;;;;0.20;0.20;;;;;;;11.66;59.04;100921.22;5098209;28;20032;-71
2022/03/18 01:32:24;;;;;;;0.20;0.20;;;;;;;11.60;58.37;100917.06;5097719;28;20032;-72
2022/03/18 01:34:53;;;;;;;0.20;0.20;;;;;;;11.66;58.07;100910.06;5098122;28;20035;-71
2022/03/18 01:37:19;;;;;;;0.20;0.20;;;;;;;11.59;58.24;100921.81;5098213;28;20054;-71
2022/03/18 01:39:44;;;;;;;0.20;0.20;;;;;;;11.63;57.58;100910.78;5097711;28;20381;-71
2022/03/18 01:42:13;;;;;;;0.20;0.20;;;;;;;11.59;57.83;100915.44;5097264;28;20508;-71
2022/03/18 01:44:43;;;;;;;0.20;0.20;;;;;;;11.60;57.87;100906.72;5097530;28;20032;-72
2022/03/18 01:47:10;;;;;;;0.20;0.20;;;;;;;11.46;57.47;100898.75;5098221;28;20470;-73
2022/03/18 01:49:39;;;;;;;0.20;0.20;;;;;;;11.52;57.56;100910.47;5098870;28;20040;-73
2022/03/18 01:52:11;;;;;;;0.28;0.28;;;;;;;11.52;57.79;100904.88;5098506;28;20027;-72
2022/03/18 01:54:49;;;;;;;0.20;0.20;;;;;;;11.55;57.83;100910.56;5097980;28;20125;-73
2022/03/18 01:57:20;;;;;;;0.20;0.20;;;;;;;11.60;57.34;100897.53;5097262;28;20024;-72
2022/03/18 01:59:47;;;;;;;0.20;0.20;;;;;;;11.69;56.38;100899.03;5097110;28;20039;-72
2022/03/18 02:02:16;;;;;;;0.20;0.20;;;;;;;11.63;56.75;100899.63;5096564;28;20024;-72
2022/03/18 02:04:45;;;;;;;0.20;0.20;;;;;;;11.61;56.94;100900.00;5115287;28;20027;-72
2022/03/18 02:07:15;;;;;;;0.20;0.20;;;;;;;11.76;56.87;100904.81;5097645;28;20106;-72
2022/03/18 02:09:41;;;;;;;0.20;0.20;;;;;;;11.74;57.00;100892.41;5098756;28;20521;-73
2022/03/18 02:12:11;;;;;;;0.20;0.20;;;;;;;11.62;56.84;100901.63;5081414;28;20100;-72
2022/03/18 02:14:45;;;;;;;0.20;0.20;;;;;;;11.65;56.92;100888.94;5097042;28;20032;-72
2022/03/18 02:17:17;;;;;;;0.20;0.20;;;;;;;11.62;56.57;100890.47;5097297;28;20074;-72
2022/03/18 02:19:47;;;;;;;0.20;0.20;;;;;;;11.63;57.33;100894.06;5093069;28;20052;-74
2022/03/18 02:22:21;;;;;;;0.20;0.20;;;;;;;11.63;56.96;100892.09;5093120;28;20052;-72
2022/03/18 02:24:47;;;;;;;;;;;;;;;11.63;57.42;100892.09;5093613;28;20035;-72
2022/03/18 02:27:17;;;;;;;0.20;0.20;;;;;;;11.67;57.69;100894.97;5093151;28;19961;-72
2022/03/18 02:29:43;;;;;;;0.20;0.20;;;;;;;11.66;57.41;100898.91;5093173;28;20128;-72
2022/03/18 02:32:10;;;;;;;0.20;0.20;;;;;;;11.64;57.83;100901.25;5093760;28;20039;-73
2022/03/18 02:34:38;;;;;;;0.10;0.10;;;;;;;11.63;58.08;100894.06;5093080;28;20028;-72
2022/03/18 02:37:07;;;;;;;0.20;0.20;;;;;;;11.66;58.10;100890.56;5093103;28;20028;-72
2022/03/18 02:39:37;;;;;;;0.20;0.20;;;;;;;11.68;58.05;100891.03;5092991;28;20047;-72
2022/03/18 02:42:02;;;;;;;0.20;0.20;;;;;;;11.71;57.87;100895.88;5093425;28;20036;-72
2022/03/18 02:44:31;;;;;;;0.20;0.20;;;;;;;11.71;57.49;100895.88;5092940;28;20474;-72
2022/03/18 02:46:58;;;;;;;0.20;0.20;;;;;;;11.79;57.81;100897.72;5093434;28;20085;-72
2022/03/18 02:49:26;;;;;;;0.20;0.20;;;;;;;11.80;57.50;100888.19;5093120;28;20488;-72
2022/03/18 02:51:56;;;;;;;0.20;0.20;;;;;;;11.78;57.90;100898.91;5092764;28;20024;-73
2022/03/18 02:54:22;;;;;;;0.20;0.20;;;;;;;11.72;57.82;100892.75;5093020;28;20114;-72
2022/03/18 02:56:48;;;;;;;0.20;0.20;;;;;;;11.71;58.21;100895.88;5093339;28;20431;-72
2022/03/18 02:59:13;;;;;;;0.20;0.20;;;;;;;11.70;58.45;100888.69;5093070;28;20116;-72
2022/03/18 03:01:44;;;;;;;0.20;0.20;;;;;;;11.71;58.30;100895.88;5092973;28;20055;-73
2022/03/18 03:04:13;;;;;;;0.20;0.20;;;;;;;11.72;58.67;100897.53;5092679;28;20064;-73
2022/03/18 03:09:22;;;;;;;;;;;;;;;11.63;59.29;100894.88;5094878;28;20070;-72
2022/03/18 03:11:48;;;;;;;0.20;0.20;;;;;;;11.57;59.29;100901.03;5092623;28;19943;-72
2022/03/18 03:14:17;;;;;;;0.20;0.20;;;;;;;11.54;59.56;100900.56;5096211;28;20035;-72
2022/03/18 03:16:46;;;;;;;0.20;0.20;;;;;;;11.51;59.78;100909.66;5098183;28;20032;-73
2022/03/18 03:19:15;;;;;;;0.20;0.20;;;;;;;11.51;59.62;100904.06;5096438;28;20059;-72
2022/03/18 03:21:43;;;;;;;0.20;0.20;;;;;;;11.52;59.54;100908.47;5096393;28;20024;-73
2022/03/18 03:24:12;;;;;;;0.20;0.20;;;;;;;11.59;59.69;100907.06;5096663;28;20032;-73
2022/03/18 03:26:41;;;;;;;0.20;0.20;;;;;;;11.62;59.37;100903.59;5096917;28;20028;-72
2022/03/18 03:29:10;;;;;;;0.20;0.20;;;;;;;11.58;59.80;100908.25;5096907;28;20028;-72
2022/03/18 03:31:35;;;;;;;0.20;0.20;;;;;;;11.52;59.82;100910.47;5096774;28;20118;-73
2022/03/18 03:34:07;;;;;;;0.20;0.20;;;;;;;11.52;59.41;100896.53;5096669;28;20112;-72
2022/03/18 03:36:35;;;;;;;0.20;0.20;;;;;;;11.61;59.44;100905.56;5096471;28;20115;-72
2022/03/18 03:39:03;;;;;;;0.20;0.20;;;;;;;11.62;59.85;100906.38;5097457;28;20032;-72
2022/03/18 03:41:32;;;;;;;0.20;0.20;;;;;;;11.63;57.96;100900.44;5096867;28;20115;-72
2022/03/18 03:44:00;;;;;;;0.20;0.20;;;;;;;11.55;58.39;100899.41;5096394;28;20111;-72
2022/03/18 03:46:26;;;;;;;0.20;0.20;;;;;;;11.50;58.05;100905.25;5096760;28;20047;-72
2022/03/18 03:48:54;;;;;;;0.20;0.20;;;;;;;11.47;57.69;100903.16;5096721;28;20064;-75
2022/03/18 03:51:23;;;;;;;0.20;0.20;;;;;;;11.50;58.10;100907.19;5097397;28;20055;-72
2022/03/18 03:53:48;;;;;;;0.20;0.20;;;;;;;11.53;57.67;100898.94;5096544;28;20028;-73
2022/03/18 03:56:14;;;;;;;0.20;0.20;;;;;;;11.52;57.41;100899.31;5096243;28;20028;-72
2022/03/18 03:58:44;;;;;;;0.20;0.20;;;;;;;11.62;56.73;100890.47;5096330;28;20036;-72
2022/03/18 04:01:12;;;;;;;0.20;0.20;;;;;;;11.64;56.71;100892.88;5096701;28;20028;-72
2022/03/18 04:03:38;;;;;;;0.20;0.20;;;;;;;11.54;56.62;100896.97;5096278;28;20042;-72
2022/03/18 04:06:07;;;;;;;0.20;0.20;;;;;;;11.53;56.70;100893.38;5096645;28;20110;-73
2022/03/18 04:08:36;;;;;;;0.20;0.20;;;;;;;11.47;56.35;100907.91;5097217;28;20032;-72
2022/03/18 04:11:03;;;;;;;0.20;0.20;;;;;;;11.46;56.18;100918.25;5095950;28;20085;-73
2022/03/18 04:13:31;;;;;;;0.20;0.20;;;;;;;11.48;56.01;100921.50;5095829;28;20028;-72
2022/03/18 04:15:59;;;;;;;0.20;0.20;;;;;;;11.53;56.88;100917.66;5096342;28;20035;-72
2022/03/18 04:18:25;;;;;;;0.20;0.20;;;;;;;11.46;56.24;100914.66;5095887;28;20048;-72
2022/03/18 04:20:50;;;;;;;0.20;0.20;;;;;;;11.69;56.07;100914.94;5095988;28;20512;-72
2022/03/18 04:23:22;;;;;;;0.20;0.20;;;;;;;11.80;56.06;100916.06;5095449;28;20034;-72
2022/03/18 04:25:50;;;;;;;0.22;0.22;;;;;;;11.73;55.37;100916.69;5095811;28;20047;-73
2022/03/18 04:28:20;;;;;;;0.20;0.20;;;;;;;11.76;55.51;100920.72;5096196;28;20115;-72
2022/03/18 04:30:45;;;;;;;0.20;0.20;;;;;;;11.77;55.44;100939.06;5097173;28;20060;-72
2022/03/18 04:33:11;;;;;;;0.20;0.20;;;;;;;11.72;55.35;100944.91;5097163;28;20036;-72
2022/03/18 04:35:39;;;;;;;0.20;0.20;;;;;;;11.70;55.92;100944.44;5095858;28;20390;-73
2022/03/18 04:38:05;;;;;;;0.20;0.20;;;;;;;11.55;56.01;100943.19;5095851;28;20039;-72
2022/03/18 04:40:32;;;;;;;0.20;0.20;;;;;;;11.58;55.94;100948.06;5095709;28;20386;-73
2022/03/18 04:42:58;;;;;;;0.20;0.20;;;;;;;11.61;56.07;100941.81;5096648;28;20020;-73
2022/03/18 04:45:26;;;;;;;0.20;0.20;;;;;;;11.57;56.54;100952.03;5097389;28;20028;-73
2022/03/18 04:47:52;;;;;;;0.20;0.20;;;;;;;11.47;56.09;100964.47;5095772;28;20504;-72
2022/03/18 04:50:20;;;;;;;0.20;0.20;;;;;;;11.36;57.32;100965.28;5095447;28;20024;-72
2022/03/18 04:52:48;;;;;;;0.20;0.20;;;;;;;11.30;56.94;100972.25;5095203;28;20119;-72
2022/03/18 04:55:14;;;;;;;0.20;0.20;;;;;;;11.25;57.19;100978.88;5095127;28;20036;-72
2022/03/18 04:57:45;;;;;;;0.20;0.20;;;;;;;11.25;57.12;100981.66;5095646;28;20028;-72
2022/03/18 05:00:14;;;;;;;0.20;0.20;;;;;;;11.36;56.72;100988.38;5095616;28;20453;-71
2022/03/18 05:02:39;;;;;;;0.20;0.20;;;;;;;11.17;56.80;100966.66;5094908;28;20086;-72
2022/03/18 05:05:08;;;;;;;0.20;0.20;;;;;;;11.05;56.64;100954.72;5095424;28;20024;-72
2022/03/18 05:07:51;;;;;;;0.20;0.20;;;;;;;11.38;57.09;101007.53;5094693;28;20093;-71
2022/03/18 05:10:18;;;;;;;0.20;0.20;;;;;;;11.47;56.78;101011.03;5094950;28;20467;-72
2022/03/18 05:12:47;;;;;;;0.20;0.20;;;;;;;11.42;56.48;101014.84;5094906;28;20031;-71
2022/03/18 05:15:18;;;;;;;0.20;0.20;;;;;;;11.45;56.79;101028.09;5095172;28;20028;-72
2022/03/18 05:17:54;;;;;;;0.20;0.20;;;;;;;11.40;56.79;101041.41;5094516;28;20036;-71
2022/03/18 05:20:29;;;;;;;0.20;0.20;;;;;;;11.45;56.35;101044.81;5094070;28;20548;-71
2022/03/18 05:22:54;;;;;;;0.20;0.20;;;;;;;11.42;56.87;101034.34;5095800;28;20027;-71
2022/03/18 05:25:23;;;;;;;0.20;0.20;;;;;;;11.43;57.31;101040.75;5094607;28;20028;-71
2022/03/18 05:27:52;;;;;;;0.30;0.30;;;;;;;11.45;57.11;101038.41;5094767;28;20128;-71
2022/03/18 05:30:20;;;;;;;0.20;0.20;;;;;;;11.51;56.54;101053.75;5094219;28;20036;-71
2022/03/18 05:32:52;;;;;;;0.20;0.20;;;;;;;11.48;56.61;101049.69;5094262;28;20030;-71
2022/03/18 05:35:18;;;;;;;0.20;0.20;;;;;;;11.54;56.75;101070.56;5094166;28;20031;-71
2022/03/18 05:37:50;;;;;;;0.20;0.20;;;;;;;11.64;56.15;101071.28;5094336;28;20441;-71
2022/03/18 05:40:18;;;;;;;0.20;0.20;;;;;;;11.66;55.73;101072.56;5094357;28;20094;-71
2022/03/18 05:42:46;;;;;;;0.20;0.20;;;;;;;11.82;55.68;101072.69;5094289;28;20425;-72
2022/03/18 05:45:12;;;;;;;0.20;0.20;;;;;;;12.06;56.04;101081.03;5094280;28;20381;-71
2022/03/18 05:47:41;;;;;;;0.20;0.20;;;;;;;11.95;55.78;101068.75;5094018;28;20032;-71
2022/03/18 05:50:08;;;;;;;0.20;0.20;;;;;;;12.15;54.73;101091.28;5094086;28;20039;-72
2022/03/18 05:52:36;;;;;;;0.20;0.20;;;;;;;12.28;54.13;101104.81;5093872;28;20118;-71
2022/03/18 05:55:03;;;;;;;0.20;0.20;;;;;;;12.36;54.08;101100.28;5077300;28;20032;-71
2022/03/18 05:57:32;;;;;;;0.20;0.20;;;;;;;12.25;55.36;101099.97;5094332;28;20154;-71
2022/03/18 05:59:58;;;;;;;0.20;0.20;;;;;;;12.27;55.40;101114.38;5094455;28;20037;-72
2022/03/18 06:02:25;;;;;;;0.22;0.22;;;;;;;12.34;55.57;101110.97;5098539;28;20028;-73
2022/03/18 06:04:54;;;;;;;0.20;0.20;;;;;;;12.41;55.26;101111.22;5099769;28;20036;-73
2022/03/18 06:07:20;;;;;;;0.20;0.20;;;;;;;12.50;55.11;101117.44;5099408;28;20024;-74
2022/03/18 06:12:32;;;;;;;;;;;;;;;12.68;52.36;101118.00;5101132;28;20094;-73
2022/03/18 06:15:01;;;;;;;0.20;0.20;;;;;;;12.84;52.31;101115.25;5094808;28;20346;-72
2022/03/18 06:17:32;;;;;;;0.20;0.20;;;;;;;12.93;52.56;101113.09;5093369;28;20039;-72
2022/03/18 06:19:58;;;;;;;0.20;0.20;;;;;;;13.03;52.85;101109.78;5093062;28;20154;-72
2022/03/18 06:22:23;;;;;;;0.20;0.20;;;;;;;13.21;52.64;101115.03;5093133;28;20059;-72
2022/03/18 06:24:49;;;;;;;0.20;0.20;;;;;;;13.40;52.25;101104.00;5093921;28;20118;-72
2022/03/18 06:27:16;;;;;;;0.20;0.20;;;;;;;13.60;51.70;101102.94;5094185;28;20044;-72
2022/03/18 06:29:44;;;;;;;0.20;0.20;;;;;;;13.90;51.16;101105.25;5093131;28;20444;-72
2022/03/18 06:32:10;;;;;;;0.20;0.20;;;;;;;14.17;50.88;101114.72;5093115;28;20026;-72
2022/03/18 06:34:39;;;;;;;0.20;0.20;;;;;;;14.45;49.96;101103.31;5093003;28;20114;-72
2022/03/18 06:37:08;;;;;;;0.20;0.20;;;;;;;14.72;48.63;101095.13;5093505;28;20429;-73
2022/03/18 06:39:34;;;;;;;0.20;0.20;;;;;;;15.12;48.18;101106.69;5093042;28;20020;-73
2022/03/18 06:42:04;;;;;;;0.20;0.20;;;;;;;15.40;46.82;101111.25;5092657;28;20119;-72
2022/03/18 06:44:33;;;;;;;0.20;0.20;;;;;;;15.52;46.42;101121.47;5093021;28;20437;-72
2022/03/18 06:47:04;;;;;;;0.20;0.20;;;;;;;15.55;46.50;101127.13;5092792;28;20060;-72
2022/03/18 06:49:36;;;;;;;0.20;0.20;;;;;;;15.85;45.63;101129.25;5093103;28;20028;-72
2022/03/18 06:52:04;;;;;;;0.20;0.20;;;;;;;16.14;44.73;101125.72;5092660;28;20042;-72
2022/03/18 06:54:33;;;;;;;0.20;0.20;;;;;;;16.02;44.32;101123.13;5092525;28;20028;-72
2022/03/18 06:57:04;;;;;;;0.20;0.20;;;;;;;15.83;44.43;101131.66;5092538;28;20123;-73
2022/03/18 06:59:32;;;;;;;0.20;0.20;;;;;;;16.15;43.76;101127.34;5092481;28;20063;-72
2022/03/18 07:02:01;;;;;;;0.20;0.20;;;;;;;16.39;43.44;101140.13;5092371;28;20020;-72
2022/03/18 07:04:29;;;;;;;0.20;0.20;;;;;;;16.33;43.61;101138.81;5092420;28;20032;-72
2022/03/18 07:07:01;;;;;;;0.20;0.20;;;;;;;16.61;42.88;101137.59;5092703;28;20462;-72
2022/03/18 07:09:27;;;;;;;0.20;0.20;;;;;;;16.11;43.76;101136.91;5092582;28;20409;-72
2022/03/18 07:11:56;;;;;;;0.20;0.20;;;;;;;16.01;43.46;101143.16;5092425;28;20088;-72
2022/03/18 07:14:21;;;;;;;0.20;0.20;;;;;;;15.75;44.81;101146.72;5092608;28;20028;-72
2022/03/18 07:19:40;;;;;;;0.20;0.20;;;;;;;16.04;44.18;101145.22;5107362;28;20059;-72
2022/03/18 07:22:08;;;;;;;0.20;0.20;;;;;;;15.42;46.06;101148.94;5096347;28;20367;-72
2022/03/18 07:24:39;;;;;;;0.20;0.20;;;;;;;15.12;46.45;101151.56;5095785;28;20185;-72
2022/03/18 07:27:05;;;;;;;0.20;0.20;;;;;;;15.32;46.01;101148.72;5095765;28;20031;-73
2022/03/18 07:29:31;;;;;;;0.20;0.20;;;;;;;15.02;46.62;101159.75;5095506;28;20384;-72
2022/03/18 07:31:59;;;;;;;0.20;0.20;;;;;;;14.86;47.57;101162.63;5095723;28;20381;-73
2022/03/18 07:34:25;;;;;;;0.20;0.20;;;;;;;14.97;47.14;101155.28;5095919;28;20032;-73
2022/03/18 07:36:51;;;;;;;0.20;0.20;;;;;;;14.98;46.56;101162.50;5096911;28;20036;-73
2022/03/18 07:39:17;;;;;;;0.20;0.20;;;;;;;14.89;47.78;101159.91;5097205;28;20120;-73
2022/03/18 07:41:43;;;;;;;0.20;0.20;;;;;;;14.76;48.42;101152.84;5095612;28;20110;-73
2022/03/18 07:44:09;;;;;;;0.20;0.20;;;;;;;14.95;48.12;101154.81;5095956;28;20132;-72
2022/03/18 07:46:40;;;;;;;0.20;0.20;;;;;;;15.09;47.47;101152.31;5095286;28;20433;-73
2022/03/18 07:49:12;;;;;;;0.20;0.20;;;;;;;15.27;47.24;101154.66;5095171;28;20027;-72
2022/03/18 07:51:40;;;;;;;0.20;0.20;;;;;;;15.41;47.19;101163.34;5095555;28;20031;-73
2022/03/18 07:54:09;;;;;;;0.20;0.20;;;;;;;15.57;47.06;101150.00;5095247;28;20032;-72
2022/03/18 07:56:37;;;;;;;0.15;0.15;;;;;;;15.62;46.47;101149.69;5095237;28;20023;-73
2022/03/18 07:59:05;;;;;;;0.20;0.20;;;;;;;15.70;46.47;101151.47;5096680;28;20038;-72
2022/03/18 08:01:31;;;;;;;0.20;0.20;;;;;;;15.32;47.38;101162.75;5099192;28;20160;-72
2022/03/18 08:04:02;;;;;;;0.20;0.20;;;;;;;15.25;47.30;101168.22;5099403;28;20466;-72
2022/03/18 08:06:31;;;;;;;0.20;0.20;;;;;;;15.31;46.91;101163.94;5099204;28;20020;-72
2022/03/18 08:08:59;;;;;;;0.20;0.20;;;;;;;15.39;47.36;101158.09;5099174;28;20023;-73
2022/03/18 08:11:25;;;;;;;0.20;0.20;;;;;;;15.14;46.56;101163.22;5099120;28;20035;-72
2022/03/18 08:13:50;;;;;;;0.10;0.10;;;;;;;15.11;45.65;101158.34;5098876;28;20050;-72
2022/03/18 08:16:16;;;;;;;0.20;0.20;;;;;;;15.25;45.43;101159.81;5099171;28;20038;-73
2022/03/18 08:18:48;;;;;;;0.20;0.20;;;;;;;15.15;45.90;101156.44;5095135;28;20048;-73
2022/03/18 08:21:15;;;;;;;0.10;0.10;;;;;;;15.02;46.25;101152.19;5097244;28;20036;-72
2022/03/18 08:23:42;;;;;;;0.20;0.20;;;;;;;15.10;46.00;101155.91;5095399;28;20164;-73
2022/03/18 08:26:11;;;;;;;0.20;0.20;;;;;;;15.06;46.44;101157.84;5095377;28;20032;-73
2022/03/18 08:28:39;;;;;;;0.20;0.20;;;;;;;15.25;45.76;101162.63;5094948;28;20028;-72
2022/03/18 08:31:11;;;;;;;0.20;0.20;;;;;;;15.22;46.19;101164.16;5095231;28;20020;-72
2022/03/18 08:33:39;;;;;;;0.20;0.20;;;;;;;15.23;45.35;101160.16;5095765;28;20386;-73
2022/03/18 08:36:08;;;;;;;0.20;0.20;;;;;;;15.36;45.58;101169.25;5094980;28;20031;-72
2022/03/18 08:38:36;;;;;;;0.20;0.20;;;;;;;15.13;45.67;101167.22;5096387;28;20100;-72
2022/03/18 08:41:05;;;;;;;0.20;0.20;;;;;;;15.28;45.43;101164.66;5095035;28;20016;-73
2022/03/18 08:43:33;;;;;;;0.20;0.20;;;;;;;15.24;45.01;101158.22;5095059;28;20089;-73
2022/03/18 08:46:05;;;;;;;0.20;0.20;;;;;;;15.11;44.76;101161.16;5094941;28;20075;-72
2022/03/18 08:48:30;;;;;;;0.20;0.20;;;;;;;14.98;45.29;101153.28;5094795;28;20028;-72
2022/03/18 08:51:02;;;;;;;0.17;0.17;;;;;;;15.17;45.59;101161.66;5094765;28;20028;-72
2022/03/18 08:53:30;;;;;;;0.20;0.20;;;;;;;15.26;44.44;101158.63;5095149;28;20082;-73
2022/03/18 08:56:00;;;;;;;0.20;0.20;;;;;;;15.45;44.74;101172.63;5094712;28;20467;-75
2022/03/18 08:58:28;;;;;;;0.20;0.20;;;;;;;15.66;44.63;101159.03;5095428;28;20123;-71
2022/03/18 09:00:54;;;;;;;0.20;0.20;;;;;;;15.94;44.02;101163.50;5095863;28;20027;-72
2022/03/18 09:03:20;;;;;;;0.20;0.20;;;;;;;16.00;42.97;101164.78;5094367;28;20031;-72
2022/03/18 09:05:46;;;;;;;0.20;0.20;;;;;;;15.84;43.41;101164.13;5094476;28;20024;-71
2022/03/18 09:08:15;;;;;;;0.20;0.20;;;;;;;15.90;43.29;101171.03;5078257;28;20036;-71
2022/03/18 09:10:44;;;;;;;0.20;0.20;;;;;;;15.59;43.80;101167.25;5093201;28;20049;-71
2022/03/18 09:13:12;;;;;;;0.20;0.20;;;;;;;15.94;43.17;101163.50;5094586;28;20031;-71
2022/03/18 09:15:44;;;;;;;0.20;0.20;;;;;;;16.03;43.51;101157.59;5094626;28;20024;-71
2022/03/18 09:18:10;;;;;;;0.10;0.10;;;;;;;16.07;42.14;101162.09;5094672;28;20027;-71
2022/03/18 09:20:41;;;;;;;0.20;0.20;;;;;;;15.89;43.26;101163.81;5095220;28;20355;-71
2022/03/18 09:23:09;;;;;;;0.20;0.20;;;;;;;15.91;43.39;101167.84;5095891;28;20020;-72
2022/03/18 09:25:37;;;;;;;0.10;0.10;;;;;;;15.77;43.16;101164.00;5096777;28;20035;-74
2022/03/18 09:28:09;;;;;;;0.20;0.20;;;;;;;15.55;42.49;101176.78;5097539;28;20118;-73
2022/03/18 09:30:40;;;;;;;0.20;0.20;;;;;;;15.20;42.90;101172.94;5097406;28;20043;-71
2022/03/18 09:33:08;;;;;;;0.20;0.20;;;;;;;14.98;43.48;101165.28;5095914;28;20039;-72
2022/03/18 09:35:36;;;;;;;0.20;0.20;;;;;;;14.60;44.40;101166.91;5095944;28;20028;-72
2022/03/18 09:38:04;;;;;;;0.20;0.20;;;;;;;14.62;44.92;101169.31;5096836;28;20027;-72
2022/03/18 09:40:31;;;;;;;0.20;0.20;;;;;;;14.72;44.60;101167.94;5095721;28;20135;-72
2022/03/18 09:42:57;;;;;;;0.20;0.20;;;;;;;14.79;44.94;101180.09;5095306;28;20402;-72
2022/03/18 09:45:31;;;;;;;0.20;0.20;;;;;;;14.85;44.59;101177.81;5095985;28;20031;-73
2022/03/18 09:48:01;;;;;;;;;;;;;;;15.09;44.62;101183.13;5096221;28;20058;-73
2022/03/18 09:50:31;;;;;;;0.20;0.20;;;;;;;14.98;45.45;101190.53;5094517;28;19915;-74
2022/03/18 09:53:00;;;;;;;0.20;0.20;;;;;;;14.88;44.68;101191.91;5094561;28;20031;-73
2022/03/18 09:55:26;;;;;;;0.20;0.20;;;;;;;14.76;45.23;101185.66;5094666;28;20051;-72
2022/03/18 09:57:53;;;;;;;0.20;0.20;;;;;;;14.86;44.00;101185.03;5094704;28;20470;-72
2022/03/18 10:00:19;;;;;;;0.20;0.20;;;;;;;15.00;43.53;101188.16;5094624;28;20032;-72
2022/03/18 10:02:46;;;;;;;0.20;0.20;;;;;;;14.89;43.80;101182.31;5094579;28;20060;-72
2022/03/18 10:05:16;;;;;;;0.20;0.20;;;;;;;14.95;44.10;101182.84;5094970;28;20044;-72
2022/03/18 10:08:00;;;;;;;0.20;0.20;;;;;;;14.90;44.59;101194.34;5096031;28;20425;-72
2022/03/18 10:10:28;;;;;;;0.20;0.20;;;;;;;14.82;44.70;101178.56;5094057;28;20118;-72
2022/03/18 10:12:56;;;;;;;0.17;0.17;;;;;;;15.15;43.58;101181.66;5095482;28;20028;-72
2022/03/18 10:15:28;;;;;;;0.20;0.20;;;;;;;15.20;43.36;101189.78;5093562;28;20032;-72
2022/03/18 10:18:00;;;;;;;0.20;0.20;;;;;;;15.20;43.39;101189.78;5093493;28;20054;-72
2022/03/18 10:20:41;;;;;;;0.20;0.20;;;;;;;15.28;43.65;101179.50;5093350;28;20036;-72
2022/03/18 10:23:15;;;;;;;0.20;0.20;;;;;;;15.14;43.33;101184.84;5092772;28;20054;-72
2022/03/18 10:25:53;;;;;;;0.20;0.20;;;;;;;15.13;43.68;101178.44;5093441;28;20060;-72
2022/03/18 10:28:58;;;;;;;0.20;0.20;;;;;;;15.31;43.85;101172.34;5093271;28;20024;-72
2022/03/18 10:31:25;;;;;;;0.20;0.20;;;;;;;15.46;43.12;101157.41;5033504;28;20040;-73
2022/03/18 10:37:04;;;;;;;0.20;0.20;;;;;;;15.34;43.01;101174.41;5095415;28;20533;-72
2022/03/18 10:39:38;;;;;;;0.10;0.10;;;;;;;15.22;43.62;101174.56;5093338;28;20024;-72
2022/03/18 10:42:15;;;;;;;0.20;0.20;;;;;;;15.13;43.65;101172.81;5092999;28;20119;-72
2022/03/18 10:44:53;;;;;;;0.20;0.20;;;;;;;15.19;43.97;101174.13;5093087;28;20027;-72
2022/03/18 10:47:34;;;;;;;0.20;0.20;;;;;;;15.19;43.83;101171.34;5094298;28;20371;-72
2022/03/18 10:50:11;;;;;;;0.20;0.20;;;;;;;15.22;44.22;101166.16;5093585;28;20463;-72
2022/03/18 10:53:04;;;;;;;0.20;0.20;;;;;;;15.18;44.88;101160.50;5092811;28;20035;-72
2022/03/18 10:55:41;;;;;;;0.20;0.20;;;;;;;15.13;44.51;101155.19;5092982;28;20111;-72
2022/03/18 10:58:18;;;;;;;0.20;0.20;;;;;;;14.86;44.88;101148.63;5093349;28;20036;-72
2022/03/18 11:00:51;;;;;;;0.20;0.20;;;;;;;14.73;45.81;101147.16;5093981;28;20016;-72
2022/03/18 11:03:28;;;;;;;0.20;0.20;;;;;;;14.50;45.16;101142.28;5092681;28;20028;-72
2022/03/18 11:06:02;;;;;;;0.20;0.20;;;;;;;14.58;45.63;101135.63;5092967;28;20118;-72
2022/03/18 11:08:48;;;;;;;0.22;0.22;;;;;;;14.72;45.46;101132.34;5092395;28;20055;-73
2022/03/18 11:11:22;;;;;;;0.20;0.20;;;;;;;14.68;45.42;101125.84;5092614;28;20024;-72
2022/03/18 11:13:56;;;;;;;0.20;0.20;;;;;;;14.62;45.08;101118.91;5092979;28;20024;-72
2022/03/18 11:16:30;;;;;;;0.20;0.20;;;;;;;14.53;45.56;101116.31;5092599;28;20032;-72
2022/03/18 11:19:00;;;;;;;0.20;0.20;;;;;;;14.47;46.02;101109.38;5092454;28;20063;-72
2022/03/18 11:21:38;;;;;;;0.20;0.20;;;;;;;14.40;46.46;101100.81;5092594;28;20531;-72
2022/03/18 11:24:06;;;;;;;0.20;0.20;;;;;;;14.47;46.41;101101.00;5094289;28;20035;-73
2022/03/18 11:26:38;;;;;;;0.20;0.20;;;;;;;14.36;46.06;101097.94;5092870;28;20032;-72
2022/03/18 11:29:19;;;;;;;0.20;0.20;;;;;;;14.41;45.36;101094.03;5092563;28;20055;-72
2022/03/18 11:32:14;;;;;;;0.20;0.20;;;;;;;14.41;45.00;101077.22;5092500;28;20024;-72
2022/03/18 11:34:50;;;;;;;0.20;0.20;;;;;;;14.50;45.54;101089.06;5094666;28;20179;-72
2022/03/18 11:37:20;;;;;;;0.20;0.20;;;;;;;14.60;44.79;101088.47;5096654;28;20031;-72
2022/03/18 11:39:49;;;;;;;0.20;0.20;;;;;;;14.56;44.94;101087.59;5097324;28;20048;-72
2022/03/18 11:42:22;;;;;;;0.20;0.20;;;;;;;14.75;45.16;101083.16;5094267;28;20036;-72
2022/03/18 11:44:56;;;;;;;0.20;0.20;;;;;;;14.96;44.19;101077.16;5097592;28;20067;-72
2022/03/18 11:47:30;;;;;;;0.20;0.20;;;;;;;15.19;43.91;101083.63;5099046;28;20036;-73
2022/03/18 11:50:01;;;;;;;0.20;0.20;;;;;;;15.33;43.85;101071.84;5097450;28;20596;-72
2022/03/18 11:52:29;;;;;;;0.10;0.10;;;;;;;15.32;43.20;101067.41;5096405;28;20028;-72